sensor_id;sensor_type;location;lat;lon;timestamp;P1;P2;P0
77538;PMS7003;67783;51.656;16.106;2023-09-08T00:00:43;13;12;8
77538;PMS7003;67783;51.656;16.106;2023-09-08T00:03:50;10;10;7
77538;PMS7003;67783;51.656;16.106;2023-09-08T00:06:59;11;9;8
77538;PMS7003;67783;51.656;16.106;2023-09-08T00:10:01;13;10;8
77538;PMS7003;67783;51.656;16.106;2023-09-08T00:13:03;13;10;8
77538;PMS7003;67783;51.656;16.106;2023-09-08T00:16:05;15;13;9
77538;PMS7003;67783;51.656;16.106;2023-09-08T00:19:10;14;11;6
77538;PMS7003;67783;51.656;16.106;2023-09-08T00:22:19;14;9;7
77538;PMS7003;67783;51.656;16.106;2023-09-08T00:25:21;15;13;10
77538;PMS7003;67783;51.656;16.106;2023-09-08T00:28:22;14;12;9
77538;PMS7003;67783;51.656;16.106;2023-09-08T00:31:24;12;10;9
77538;PMS7003;67783;51.656;16.106;2023-09-08T00:34:26;13;11;9
77538;PMS7003;67783;51.656;16.106;2023-09-08T00:37:27;11;10;9
77538;PMS7003;67783;51.656;16.106;2023-09-08T00:40:29;13;10;9
77538;PMS7003;67783;51.656;16.106;2023-09-08T00:43:34;10;10;8
77538;PMS7003;67783;51.656;16.106;2023-09-08T00:46:35;13;13;10
77538;PMS7003;67783;51.656;16.106;2023-09-08T00:49:37;13;12;9
77538;PMS7003;67783;51.656;16.106;2023-09-08T00:52:39;12;12;9
77538;PMS7003;67783;51.656;16.106;2023-09-08T00:55:41;12;12;8
77538;PMS7003;67783;51.656;16.106;2023-09-08T00:58:43;10;9;8
77538;PMS7003;67783;51.656;16.106;2023-09-08T01:01:44;11;11;9
77538;PMS7003;67783;51.656;16.106;2023-09-08T01:04:49;9;9;7
77538;PMS7003;67783;51.656;16.106;2023-09-08T01:07:51;12;11;8
77538;PMS7003;67783;51.656;16.106;2023-09-08T01:10:54;16;11;9
77538;PMS7003;67783;51.656;16.106;2023-09-08T01:13:57;9;8;7
77538;PMS7003;67783;51.656;16.106;2023-09-08T01:16:58;16;13;10
77538;PMS7003;67783;51.656;16.106;2023-09-08T01:20:16;14;11;6
77538;PMS7003;67783;51.656;16.106;2023-09-08T01:23:28;13;12;10
77538;PMS7003;67783;51.656;16.106;2023-09-08T01:26:40;10;10;8
77538;PMS7003;67783;51.656;16.106;2023-09-08T01:29:42;8;8;7
77538;PMS7003;67783;51.656;16.106;2023-09-08T01:32:47;13;13;10
77538;PMS7003;67783;51.656;16.106;2023-09-08T01:35:49;15;13;9
77538;PMS7003;67783;51.656;16.106;2023-09-08T01:38:51;11;11;8
77538;PMS7003;67783;51.656;16.106;2023-09-08T01:41:52;9;8;7
77538;PMS7003;67783;51.656;16.106;2023-09-08T01:45:03;11;11;8
77538;PMS7003;67783;51.656;16.106;2023-09-08T01:48:06;12;12;10
77538;PMS7003;67783;51.656;16.106;2023-09-08T01:51:07;12;12;10
77538;PMS7003;67783;51.656;16.106;2023-09-08T01:54:09;14;12;9
77538;PMS7003;67783;51.656;16.106;2023-09-08T01:57:11;14;14;11
77538;PMS7003;67783;51.656;16.106;2023-09-08T02:00:23;14;11;8
77538;PMS7003;67783;51.656;16.106;2023-09-08T02:03:25;13;13;9
77538;PMS7003;67783;51.656;16.106;2023-09-08T02:06:26;15;12;9
77538;PMS7003;67783;51.656;16.106;2023-09-08T02:09:31;14;12;11
77538;PMS7003;67783;51.656;16.106;2023-09-08T02:12:33;15;15;10
77538;PMS7003;67783;51.656;16.106;2023-09-08T02:15:44;13;12;9
77538;PMS7003;67783;51.656;16.106;2023-09-08T02:18:45;14;14;10
77538;PMS7003;67783;51.656;16.106;2023-09-08T02:21:47;21;17;10
77538;PMS7003;67783;51.656;16.106;2023-09-08T02:24:48;11;11;7
77538;PMS7003;67783;51.656;16.106;2023-09-08T02:27:52;10;10;8
77538;PMS7003;67783;51.656;16.106;2023-09-08T02:31:04;12;11;8
77538;PMS7003;67783;51.656;16.106;2023-09-08T02:34:06;11;11;9
77538;PMS7003;67783;51.656;16.106;2023-09-08T02:37:08;9;9;7
77538;PMS7003;67783;51.656;16.106;2023-09-08T02:40:09;14;12;9
77538;PMS7003;67783;51.656;16.106;2023-09-08T02:43:11;9;9;8
77538;PMS7003;67783;51.656;16.106;2023-09-08T02:46:12;13;11;8
77538;PMS7003;67783;51.656;16.106;2023-09-08T02:49:15;13;12;9
77538;PMS7003;67783;51.656;16.106;2023-09-08T02:52:19;9;9;7
77538;PMS7003;67783;51.656;16.106;2023-09-08T02:55:21;15;14;11
77538;PMS7003;67783;51.656;16.106;2023-09-08T02:58:22;11;9;8
77538;PMS7003;67783;51.656;16.106;2023-09-08T03:01:25;11;11;7
77538;PMS7003;67783;51.656;16.106;2023-09-08T03:04:26;13;10;7
77538;PMS7003;67783;51.656;16.106;2023-09-08T03:07:28;15;15;9
77538;PMS7003;67783;51.656;16.106;2023-09-08T03:10:30;13;13;8
77538;PMS7003;67783;51.656;16.106;2023-09-08T03:13:35;11;11;8
77538;PMS7003;67783;51.656;16.106;2023-09-08T03:16:37;10;10;7
77538;PMS7003;67783;51.656;16.106;2023-09-08T03:19:38;13;11;8
77538;PMS7003;67783;51.656;16.106;2023-09-08T03:22:40;16;11;8
77538;PMS7003;67783;51.656;16.106;2023-09-08T03:25:42;11;11;9
77538;PMS7003;67783;51.656;16.106;2023-09-08T03:28:44;12;8;6
77538;PMS7003;67783;51.656;16.106;2023-09-08T03:31:45;15;11;9
77538;PMS7003;67783;51.656;16.106;2023-09-08T03:34:50;13;13;10
77538;PMS7003;67783;51.656;16.106;2023-09-08T03:37:52;13;13;10
77538;PMS7003;67783;51.656;16.106;2023-09-08T03:40:53;14;11;8
77538;PMS7003;67783;51.656;16.106;2023-09-08T03:43:55;11;9;8
77538;PMS7003;67783;51.656;16.106;2023-09-08T03:46:57;15;13;10
77538;PMS7003;67783;51.656;16.106;2023-09-08T03:49:58;13;12;10
77538;PMS7003;67783;51.656;16.106;2023-09-08T03:53:00;14;12;10
77538;PMS7003;67783;51.656;16.106;2023-09-08T03:56:05;14;14;12
77538;PMS7003;67783;51.656;16.106;2023-09-08T03:59:06;20;14;9
77538;PMS7003;67783;51.656;16.106;2023-09-08T04:02:08;13;12;8
77538;PMS7003;67783;51.656;16.106;2023-09-08T04:05:10;12;12;9
77538;PMS7003;67783;51.656;16.106;2023-09-08T04:08:12;10;10;8
77538;PMS7003;67783;51.656;16.106;2023-09-08T04:11:13;13;12;9
77538;PMS7003;67783;51.656;16.106;2023-09-08T04:14:15;10;10;8
77538;PMS7003;67783;51.656;16.106;2023-09-08T04:17:20;11;11;9
77538;PMS7003;67783;51.656;16.106;2023-09-08T04:20:21;11;10;8
77538;PMS7003;67783;51.656;16.106;2023-09-08T04:23:23;13;12;10
77538;PMS7003;67783;51.656;16.106;2023-09-08T04:26:25;13;10;7
77538;PMS7003;67783;51.656;16.106;2023-09-08T04:29:26;15;9;7
77538;PMS7003;67783;51.656;16.106;2023-09-08T04:32:28;16;11;9
77538;PMS7003;67783;51.656;16.106;2023-09-08T04:35:29;13;12;5
77538;PMS7003;67783;51.656;16.106;2023-09-08T04:38:34;11;11;10
77538;PMS7003;67783;51.656;16.106;2023-09-08T04:41:36;13;11;8
77538;PMS7003;67783;51.656;16.106;2023-09-08T04:44:39;10;10;9
77538;PMS7003;67783;51.656;16.106;2023-09-08T04:47:40;11;11;9
77538;PMS7003;67783;51.656;16.106;2023-09-08T04:50:42;14;12;8
77538;PMS7003;67783;51.656;16.106;2023-09-08T04:53:43;10;9;7
77538;PMS7003;67783;51.656;16.106;2023-09-08T04:56:45;13;11;10
77538;PMS7003;67783;51.656;16.106;2023-09-08T04:59:50;13;12;8
77538;PMS7003;67783;51.656;16.106;2023-09-08T05:02:51;13;12;9
77538;PMS7003;67783;51.656;16.106;2023-09-08T05:05:53;14;12;8
77538;PMS7003;67783;51.656;16.106;2023-09-08T05:08:54;12;11;10
77538;PMS7003;67783;51.656;16.106;2023-09-08T05:11:56;16;14;11
77538;PMS7003;67783;51.656;16.106;2023-09-08T05:15:10;10;10;9
77538;PMS7003;67783;51.656;16.106;2023-09-08T05:18:17;15;11;9
77538;PMS7003;67783;51.656;16.106;2023-09-08T05:21:18;13;11;8
77538;PMS7003;67783;51.656;16.106;2023-09-08T05:24:20;14;12;9
77538;PMS7003;67783;51.656;16.106;2023-09-08T05:27:21;11;8;6
77538;PMS7003;67783;51.656;16.106;2023-09-08T05:30:31;10;10;8
77538;PMS7003;67783;51.656;16.106;2023-09-08T05:33:32;12;11;6
77538;PMS7003;67783;51.656;16.106;2023-09-08T05:36:34;15;15;11
77538;PMS7003;67783;51.656;16.106;2023-09-08T05:39:40;12;12;9
77538;PMS7003;67783;51.656;16.106;2023-09-08T05:42:42;15;13;9
77538;PMS7003;67783;51.656;16.106;2023-09-08T05:45:51;13;13;9
77538;PMS7003;67783;51.656;16.106;2023-09-08T05:48:53;14;13;10
77538;PMS7003;67783;51.656;16.106;2023-09-08T05:51:54;16;12;9
77538;PMS7003;67783;51.656;16.106;2023-09-08T05:54:56;14;14;10
77538;PMS7003;67783;51.656;16.106;2023-09-08T05:57:57;13;13;7
77538;PMS7003;67783;51.656;16.106;2023-09-08T06:01:00;16;16;12
77538;PMS7003;67783;51.656;16.106;2023-09-08T06:04:03;19;14;9
77538;PMS7003;67783;51.656;16.106;2023-09-08T06:07:08;15;15;11
77538;PMS7003;67783;51.656;16.106;2023-09-08T06:10:09;18;13;10
77538;PMS7003;67783;51.656;16.106;2023-09-08T06:13:11;18;15;11
77538;PMS7003;67783;51.656;16.106;2023-09-08T06:16:13;11;11;8
77538;PMS7003;67783;51.656;16.106;2023-09-08T06:19:14;12;11;9
77538;PMS7003;67783;51.656;16.106;2023-09-08T06:22:16;14;13;9
77538;PMS7003;67783;51.656;16.106;2023-09-08T06:25:17;13;13;10
77538;PMS7003;67783;51.656;16.106;2023-09-08T06:28:22;16;14;12
77538;PMS7003;67783;51.656;16.106;2023-09-08T06:31:24;15;14;10
77538;PMS7003;67783;51.656;16.106;2023-09-08T06:34:26;12;11;9
77538;PMS7003;67783;51.656;16.106;2023-09-08T06:37:27;16;13;10
77538;PMS7003;67783;51.656;16.106;2023-09-08T06:40:30;15;12;9
77538;PMS7003;67783;51.656;16.106;2023-09-08T06:43:31;13;13;10
77538;PMS7003;67783;51.656;16.106;2023-09-08T06:46:33;12;11;9
77538;PMS7003;67783;51.656;16.106;2023-09-08T06:49:37;13;12;10
77538;PMS7003;67783;51.656;16.106;2023-09-08T06:52:39;13;13;11
77538;PMS7003;67783;51.656;16.106;2023-09-08T06:55:41;14;14;10
77538;PMS7003;67783;51.656;16.106;2023-09-08T06:58:43;15;14;10
77538;PMS7003;67783;51.656;16.106;2023-09-08T07:01:45;14;13;7
77538;PMS7003;67783;51.656;16.106;2023-09-08T07:04:46;19;16;12
77538;PMS7003;67783;51.656;16.106;2023-09-08T07:07:48;18;18;12
77538;PMS7003;67783;51.656;16.106;2023-09-08T07:10:52;17;14;12
77538;PMS7003;67783;51.656;16.106;2023-09-08T07:13:54;14;14;11
77538;PMS7003;67783;51.656;16.106;2023-09-08T07:16:56;14;12;10
77538;PMS7003;67783;51.656;16.106;2023-09-08T07:19:58;19;18;13
77538;PMS7003;67783;51.656;16.106;2023-09-08T07:22:59;13;12;9
77538;PMS7003;67783;51.656;16.106;2023-09-08T07:26:01;13;13;9
77538;PMS7003;67783;51.656;16.106;2023-09-08T07:29:02;16;15;12
77538;PMS7003;67783;51.656;16.106;2023-09-08T07:32:07;16;15;11
77538;PMS7003;67783;51.656;16.106;2023-09-08T07:35:09;17;12;9
77538;PMS7003;67783;51.656;16.106;2023-09-08T07:38:16;21;18;13
77538;PMS7003;67783;51.656;16.106;2023-09-08T07:41:20;15;14;11
77538;PMS7003;67783;51.656;16.106;2023-09-08T07:44:22;17;13;9
77538;PMS7003;67783;51.656;16.106;2023-09-08T07:47:28;19;17;11
77538;PMS7003;67783;51.656;16.106;2023-09-08T07:50:29;21;15;12
77538;PMS7003;67783;51.656;16.106;2023-09-08T07:53:32;16;14;12
77538;PMS7003;67783;51.656;16.106;2023-09-08T07:56:33;14;14;10
77538;PMS7003;67783;51.656;16.106;2023-09-08T07:59:35;18;16;12
77538;PMS7003;67783;51.656;16.106;2023-09-08T08:02:37;14;12;8
77538;PMS7003;67783;51.656;16.106;2023-09-08T08:05:43;18;13;11
77538;PMS7003;67783;51.656;16.106;2023-09-08T08:08:48;14;14;10
77538;PMS7003;67783;51.656;16.106;2023-09-08T08:11:50;16;15;11
77538;PMS7003;67783;51.656;16.106;2023-09-08T08:14:51;14;14;11
77538;PMS7003;67783;51.656;16.106;2023-09-08T08:17:53;13;13;10
77538;PMS7003;67783;51.656;16.106;2023-09-08T08:20:54;20;15;10
77538;PMS7003;67783;51.656;16.106;2023-09-08T08:23:56;15;13;9
77538;PMS7003;67783;51.656;16.106;2023-09-08T08:26:57;14;13;10
77538;PMS7003;67783;51.656;16.106;2023-09-08T08:30:03;14;14;10
77538;PMS7003;67783;51.656;16.106;2023-09-08T08:33:05;12;12;10
77538;PMS7003;67783;51.656;16.106;2023-09-08T08:36:08;13;13;10
77538;PMS7003;67783;51.656;16.106;2023-09-08T08:39:10;12;12;7
77538;PMS7003;67783;51.656;16.106;2023-09-08T08:42:12;16;14;11
77538;PMS7003;67783;51.656;16.106;2023-09-08T08:45:23;17;15;12
77538;PMS7003;67783;51.656;16.106;2023-09-08T08:48:26;16;12;8
77538;PMS7003;67783;51.656;16.106;2023-09-08T08:51:31;13;12;9
77538;PMS7003;67783;51.656;16.106;2023-09-08T08:54:37;15;15;10
77538;PMS7003;67783;51.656;16.106;2023-09-08T08:57:40;14;14;10
77538;PMS7003;67783;51.656;16.106;2023-09-08T09:00:45;13;11;9
77538;PMS7003;67783;51.656;16.106;2023-09-08T09:03:48;16;14;12
77538;PMS7003;67783;51.656;16.106;2023-09-08T09:06:52;19;14;10
77538;PMS7003;67783;51.656;16.106;2023-09-08T09:09:55;13;13;11
77538;PMS7003;67783;51.656;16.106;2023-09-08T09:12:57;13;13;9
77538;PMS7003;67783;51.656;16.106;2023-09-08T09:16:06;15;15;12
77538;PMS7003;67783;51.656;16.106;2023-09-08T09:19:17;12;10;9
77538;PMS7003;67783;51.656;16.106;2023-09-08T09:22:28;16;13;10
77538;PMS7003;67783;51.656;16.106;2023-09-08T09:25:38;14;13;10
77538;PMS7003;67783;51.656;16.106;2023-09-08T09:31:56;12;12;9
77538;PMS7003;67783;51.656;16.106;2023-09-08T09:35:04;12;10;8
77538;PMS7003;67783;51.656;16.106;2023-09-08T09:38:08;12;12;9
77538;PMS7003;67783;51.656;16.106;2023-09-08T09:41:13;17;14;12
77538;PMS7003;67783;51.656;16.106;2023-09-08T09:44:15;15;14;11
77538;PMS7003;67783;51.656;16.106;2023-09-08T09:47:17;15;10;9
77538;PMS7003;67783;51.656;16.106;2023-09-08T09:53:34;12;12;9
77538;PMS7003;67783;51.656;16.106;2023-09-08T09:56:37;12;10;9
77538;PMS7003;67783;51.656;16.106;2023-09-08T09:59:49;15;15;12
77538;PMS7003;67783;51.656;16.106;2023-09-08T10:02:54;13;11;8
77538;PMS7003;67783;51.656;16.106;2023-09-08T10:05:57;12;12;9
77538;PMS7003;67783;51.656;16.106;2023-09-08T10:09:00;10;10;7
77538;PMS7003;67783;51.656;16.106;2023-09-08T10:12:05;14;13;10
77538;PMS7003;67783;51.656;16.106;2023-09-08T10:15:10;10;10;8
77538;PMS7003;67783;51.656;16.106;2023-09-08T10:18:13;10;9;8
77538;PMS7003;67783;51.656;16.106;2023-09-08T10:21:20;11;11;9
77538;PMS7003;67783;51.656;16.106;2023-09-08T10:24:26;12;11;9
77538;PMS7003;67783;51.656;16.106;2023-09-08T10:27:29;9;9;6
77538;PMS7003;67783;51.656;16.106;2023-09-08T10:30:34;9;8;7
77538;PMS7003;67783;51.656;16.106;2023-09-08T10:33:36;13;11;7
77538;PMS7003;67783;51.656;16.106;2023-09-08T10:36:39;10;9;7
77538;PMS7003;67783;51.656;16.106;2023-09-08T10:39:41;14;13;10
77538;PMS7003;67783;51.656;16.106;2023-09-08T10:42:43;10;10;9
77538;PMS7003;67783;51.656;16.106;2023-09-08T10:45:54;11;10;9
77538;PMS7003;67783;51.656;16.106;2023-09-08T10:49:04;11;10;8
77538;PMS7003;67783;51.656;16.106;2023-09-08T10:52:08;14;11;8
77538;PMS7003;67783;51.656;16.106;2023-09-08T10:55:20;14;13;8
77538;PMS7003;67783;51.656;16.106;2023-09-08T10:58:33;11;11;9
77538;PMS7003;67783;51.656;16.106;2023-09-08T11:01:43;11;11;9
77538;PMS7003;67783;51.656;16.106;2023-09-08T11:04:48;13;10;9
77538;PMS7003;67783;51.656;16.106;2023-09-08T11:07:51;8;8;6
77538;PMS7003;67783;51.656;16.106;2023-09-08T11:10:55;13;12;10
77538;PMS7003;67783;51.656;16.106;2023-09-08T11:13:57;9;9;8
77538;PMS7003;67783;51.656;16.106;2023-09-08T11:17:02;11;10;8
77538;PMS7003;67783;51.656;16.106;2023-09-08T11:20:09;12;12;9
77538;PMS7003;67783;51.656;16.106;2023-09-08T11:23:12;12;10;8
77538;PMS7003;67783;51.656;16.106;2023-09-08T11:26:14;11;10;8
77538;PMS7003;67783;51.656;16.106;2023-09-08T11:29:17;6;5;3
77538;PMS7003;67783;51.656;16.106;2023-09-08T11:32:19;15;11;7
77538;PMS7003;67783;51.656;16.106;2023-09-08T11:35:31;9;9;7
77538;PMS7003;67783;51.656;16.106;2023-09-08T11:38:33;11;10;7
77538;PMS7003;67783;51.656;16.106;2023-09-08T11:41:35;11;9;7
77538;PMS7003;67783;51.656;16.106;2023-09-08T11:44:36;15;11;7
77538;PMS7003;67783;51.656;16.106;2023-09-08T11:47:42;8;8;6
77538;PMS7003;67783;51.656;16.106;2023-09-08T11:50:52;10;9;7
77538;PMS7003;67783;51.656;16.106;2023-09-08T11:53:54;11;11;9
77538;PMS7003;67783;51.656;16.106;2023-09-08T11:56:57;9;9;8
77538;PMS7003;67783;51.656;16.106;2023-09-08T12:00:01;8;7;7
77538;PMS7003;67783;51.656;16.106;2023-09-08T12:06:16;9;8;7
77538;PMS7003;67783;51.656;16.106;2023-09-08T12:09:18;9;9;7
77538;PMS7003;67783;51.656;16.106;2023-09-08T12:12:22;11;10;8
77538;PMS7003;67783;51.656;16.106;2023-09-08T12:18:39;8;7;7
77538;PMS7003;67783;51.656;16.106;2023-09-08T12:24:57;7;7;6
77538;PMS7003;67783;51.656;16.106;2023-09-08T12:28:02;7;7;7
77538;PMS7003;67783;51.656;16.106;2023-09-08T12:31:10;10;10;9
77538;PMS7003;67783;51.656;16.106;2023-09-08T12:34:14;10;10;8
77538;PMS7003;67783;51.656;16.106;2023-09-08T12:37:19;7;7;6
77538;PMS7003;67783;51.656;16.106;2023-09-08T12:40:22;10;10;7
77538;PMS7003;67783;51.656;16.106;2023-09-08T12:43:25;10;8;7
77538;PMS7003;67783;51.656;16.106;2023-09-08T12:46:30;8;7;6
77538;PMS7003;67783;51.656;16.106;2023-09-08T12:49:34;9;9;6
77538;PMS7003;67783;51.656;16.106;2023-09-08T12:52:36;8;7;6
77538;PMS7003;67783;51.656;16.106;2023-09-08T12:55:37;13;9;7
77538;PMS7003;67783;51.656;16.106;2023-09-08T12:58:39;10;10;8
77538;PMS7003;67783;51.656;16.106;2023-09-08T13:01:50;8;6;6
77538;PMS7003;67783;51.656;16.106;2023-09-08T13:04:52;10;9;7
77538;PMS7003;67783;51.656;16.106;2023-09-08T13:07:55;9;7;7
77538;PMS7003;67783;51.656;16.106;2023-09-08T13:10:57;5;5;4
77538;PMS7003;67783;51.656;16.106;2023-09-08T13:13:58;8;7;5
77538;PMS7003;67783;51.656;16.106;2023-09-08T13:17:00;7;6;5
77538;PMS7003;67783;51.656;16.106;2023-09-08T13:20:02;7;7;6
77538;PMS7003;67783;51.656;16.106;2023-09-08T13:23:07;7;7;6
77538;PMS7003;67783;51.656;16.106;2023-09-08T13:26:08;8;8;7
77538;PMS7003;67783;51.656;16.106;2023-09-08T13:29:10;7;7;5
77538;PMS7003;67783;51.656;16.106;2023-09-08T13:32:11;6;6;5
77538;PMS7003;67783;51.656;16.106;2023-09-08T13:35:13;7;7;6
77538;PMS7003;67783;51.656;16.106;2023-09-08T13:38:15;9;9;8
77538;PMS7003;67783;51.656;16.106;2023-09-08T13:41:17;7;6;4
77538;PMS7003;67783;51.656;16.106;2023-09-08T13:44:23;8;6;5
77538;PMS7003;67783;51.656;16.106;2023-09-08T13:47:26;8;7;5
77538;PMS7003;67783;51.656;16.106;2023-09-08T13:50:28;6;5;5
77538;PMS7003;67783;51.656;16.106;2023-09-08T13:53:33;7;7;7
77538;PMS7003;67783;51.656;16.106;2023-09-08T13:56:38;7;7;6
77538;PMS7003;67783;51.656;16.106;2023-09-08T13:59:42;6;6;4
77538;PMS7003;67783;51.656;16.106;2023-09-08T14:02:44;7;7;5
77538;PMS7003;67783;51.656;16.106;2023-09-08T14:05:45;8;8;6
77538;PMS7003;67783;51.656;16.106;2023-09-08T14:08:47;6;6;5
77538;PMS7003;67783;51.656;16.106;2023-09-08T14:11:48;7;7;6
77538;PMS7003;67783;51.656;16.106;2023-09-08T14:14:50;6;6;5
77538;PMS7003;67783;51.656;16.106;2023-09-08T14:17:51;8;8;6
77538;PMS7003;67783;51.656;16.106;2023-09-08T14:20:58;7;7;5
77538;PMS7003;67783;51.656;16.106;2023-09-08T14:24:00;9;6;5
77538;PMS7003;67783;51.656;16.106;2023-09-08T14:29:11;6;6;5
77538;PMS7003;67783;51.656;16.106;2023-09-08T14:32:13;6;6;4
77538;PMS7003;67783;51.656;16.106;2023-09-08T14:35:15;7;7;5
77538;PMS7003;67783;51.656;16.106;2023-09-08T14:38:17;6;6;6
77538;PMS7003;67783;51.656;16.106;2023-09-08T14:41:19;6;6;4
77538;PMS7003;67783;51.656;16.106;2023-09-08T14:44:21;6;6;4
77538;PMS7003;67783;51.656;16.106;2023-09-08T14:47:26;7;6;5
77538;PMS7003;67783;51.656;16.106;2023-09-08T14:50:27;5;5;5
77538;PMS7003;67783;51.656;16.106;2023-09-08T14:53:30;7;7;6
77538;PMS7003;67783;51.656;16.106;2023-09-08T14:56:32;7;7;6
77538;PMS7003;67783;51.656;16.106;2023-09-08T14:59:34;6;5;4
77538;PMS7003;67783;51.656;16.106;2023-09-08T15:02:35;4;4;4
77538;PMS7003;67783;51.656;16.106;2023-09-08T15:05:37;6;6;5
77538;PMS7003;67783;51.656;16.106;2023-09-08T15:08:42;8;8;7
77538;PMS7003;67783;51.656;16.106;2023-09-08T15:11:47;7;5;3
77538;PMS7003;67783;51.656;16.106;2023-09-08T15:14:48;6;5;4
77538;PMS7003;67783;51.656;16.106;2023-09-08T15:17:50;11;8;7
77538;PMS7003;67783;51.656;16.106;2023-09-08T15:20:53;9;8;5
77538;PMS7003;67783;51.656;16.106;2023-09-08T15:24:02;8;8;6
77538;PMS7003;67783;51.656;16.106;2023-09-08T15:27:04;7;7;5
77538;PMS7003;67783;51.656;16.106;2023-09-08T15:30:06;9;9;5
77538;PMS7003;67783;51.656;16.106;2023-09-08T15:33:09;6;6;5
77538;PMS7003;67783;51.656;16.106;2023-09-08T15:36:10;7;7;6
77538;PMS7003;67783;51.656;16.106;2023-09-08T15:39:22;7;7;6
77538;PMS7003;67783;51.656;16.106;2023-09-08T15:42:24;7;7;6
77538;PMS7003;67783;51.656;16.106;2023-09-08T15:45:26;7;6;5
77538;PMS7003;67783;51.656;16.106;2023-09-08T15:48:27;6;6;4
77538;PMS7003;67783;51.656;16.106;2023-09-08T15:51:29;6;6;4
77538;PMS7003;67783;51.656;16.106;2023-09-08T15:54:30;5;5;4
77538;PMS7003;67783;51.656;16.106;2023-09-08T15:57:32;6;4;3
77538;PMS7003;67783;51.656;16.106;2023-09-08T16:00:37;8;8;7
77538;PMS7003;67783;51.656;16.106;2023-09-08T16:03:39;9;8;5
77538;PMS7003;67783;51.656;16.106;2023-09-08T16:06:41;7;7;6
77538;PMS7003;67783;51.656;16.106;2023-09-08T16:09:43;7;6;5
77538;PMS7003;67783;51.656;16.106;2023-09-08T16:12:45;12;8;6
77538;PMS7003;67783;51.656;16.106;2023-09-08T16:15:46;5;5;4
77538;PMS7003;67783;51.656;16.106;2023-09-08T16:18:48;9;6;5
77538;PMS7003;67783;51.656;16.106;2023-09-08T16:21:53;8;7;6
77538;PMS7003;67783;51.656;16.106;2023-09-08T16:24:54;5;5;5
77538;PMS7003;67783;51.656;16.106;2023-09-08T16:27:56;6;6;5
77538;PMS7003;67783;51.656;16.106;2023-09-08T16:34:05;9;9;6
77538;PMS7003;67783;51.656;16.106;2023-09-08T16:37:13;10;8;6
77538;PMS7003;67783;51.656;16.106;2023-09-08T16:40:15;7;6;5
77538;PMS7003;67783;51.656;16.106;2023-09-08T16:43:16;6;6;4
77538;PMS7003;67783;51.656;16.106;2023-09-08T16:46:18;6;6;5
77538;PMS7003;67783;51.656;16.106;2023-09-08T16:49:20;5;5;5
77538;PMS7003;67783;51.656;16.106;2023-09-08T16:52:22;7;7;6
77538;PMS7003;67783;51.656;16.106;2023-09-08T16:55:24;7;7;6
77538;PMS7003;67783;51.656;16.106;2023-09-08T16:58:29;5;5;4
77538;PMS7003;67783;51.656;16.106;2023-09-08T17:01:30;15;5;4
77538;PMS7003;67783;51.656;16.106;2023-09-08T17:04:32;10;10;8
77538;PMS7003;67783;51.656;16.106;2023-09-08T17:07:34;5;3;3
77538;PMS7003;67783;51.656;16.106;2023-09-08T17:10:36;7;6;5
77538;PMS7003;67783;51.656;16.106;2023-09-08T17:13:37;10;10;7
77538;PMS7003;67783;51.656;16.106;2023-09-08T17:16:39;5;5;4
77538;PMS7003;67783;51.656;16.106;2023-09-08T17:19:44;6;6;5
77538;PMS7003;67783;51.656;16.106;2023-09-08T17:22:45;7;7;5
77538;PMS7003;67783;51.656;16.106;2023-09-08T17:25:47;8;8;5
77538;PMS7003;67783;51.656;16.106;2023-09-08T17:28:48;9;8;7
77538;PMS7003;67783;51.656;16.106;2023-09-08T17:31:50;11;10;8
77538;PMS7003;67783;51.656;16.106;2023-09-08T17:34:52;9;7;6
77538;PMS7003;67783;51.656;16.106;2023-09-08T17:37:54;11;11;7
77538;PMS7003;67783;51.656;16.106;2023-09-08T17:40:58;9;9;7
77538;PMS7003;67783;51.656;16.106;2023-09-08T17:44:00;12;12;8
77538;PMS7003;67783;51.656;16.106;2023-09-08T17:47:02;8;8;7
77538;PMS7003;67783;51.656;16.106;2023-09-08T17:50:07;13;13;9
77538;PMS7003;67783;51.656;16.106;2023-09-08T17:53:09;9;7;7
77538;PMS7003;67783;51.656;16.106;2023-09-08T17:56:19;9;9;7
77538;PMS7003;67783;51.656;16.106;2023-09-08T17:59:21;10;10;8
77538;PMS7003;67783;51.656;16.106;2023-09-08T18:02:23;12;8;5
77538;PMS7003;67783;51.656;16.106;2023-09-08T18:05:25;9;9;7
77538;PMS7003;67783;51.656;16.106;2023-09-08T18:08:27;10;10;8
77538;PMS7003;67783;51.656;16.106;2023-09-08T18:11:39;12;11;8
77538;PMS7003;67783;51.656;16.106;2023-09-08T18:14:41;10;10;8
77538;PMS7003;67783;51.656;16.106;2023-09-08T18:17:43;15;13;8
77538;PMS7003;67783;51.656;16.106;2023-09-08T18:20:47;11;10;7
77538;PMS7003;67783;51.656;16.106;2023-09-08T18:23:49;12;11;7
77538;PMS7003;67783;51.656;16.106;2023-09-08T18:27:00;16;14;10
77538;PMS7003;67783;51.656;16.106;2023-09-08T18:30:01;8;8;7
77538;PMS7003;67783;51.656;16.106;2023-09-08T18:33:05;18;14;11
77538;PMS7003;67783;51.656;16.106;2023-09-08T18:36:06;17;16;12
77538;PMS7003;67783;51.656;16.106;2023-09-08T18:39:08;21;17;12
77538;PMS7003;67783;51.656;16.106;2023-09-08T18:42:20;27;20;15
77538;PMS7003;67783;51.656;16.106;2023-09-08T18:45:22;25;22;15
77538;PMS7003;67783;51.656;16.106;2023-09-08T18:48:24;20;18;13
77538;PMS7003;67783;51.656;16.106;2023-09-08T18:51:26;18;14;8
77538;PMS7003;67783;51.656;16.106;2023-09-08T18:54:28;24;23;15
77538;PMS7003;67783;51.656;16.106;2023-09-08T18:57:41;16;14;12
77538;PMS7003;67783;51.656;16.106;2023-09-08T19:00:43;20;19;15
77538;PMS7003;67783;51.656;16.106;2023-09-08T19:03:48;13;13;9
77538;PMS7003;67783;51.656;16.106;2023-09-08T19:06:50;16;15;10
77538;PMS7003;67783;51.656;16.106;2023-09-08T19:09:51;18;18;11
77538;PMS7003;67783;51.656;16.106;2023-09-08T19:13:01;20;17;10
77538;PMS7003;67783;51.656;16.106;2023-09-08T19:16:05;24;22;14
77538;PMS7003;67783;51.656;16.106;2023-09-08T19:19:06;14;14;12
77538;PMS7003;67783;51.656;16.106;2023-09-08T19:22:08;21;19;13
77538;PMS7003;67783;51.656;16.106;2023-09-08T19:25:09;20;18;12
77538;PMS7003;67783;51.656;16.106;2023-09-08T19:28:22;25;20;16
77538;PMS7003;67783;51.656;16.106;2023-09-08T19:31:24;27;26;18
77538;PMS7003;67783;51.656;16.106;2023-09-08T19:34:26;25;20;14
77538;PMS7003;67783;51.656;16.106;2023-09-08T19:37:28;27;22;18
77538;PMS7003;67783;51.656;16.106;2023-09-08T19:40:30;32;30;18
77538;PMS7003;67783;51.656;16.106;2023-09-08T19:43:31;27;26;20
77538;PMS7003;67783;51.656;16.106;2023-09-08T19:46:34;30;27;19
77538;PMS7003;67783;51.656;16.106;2023-09-08T19:49:39;29;26;20
77538;PMS7003;67783;51.656;16.106;2023-09-08T19:52:43;25;24;17
77538;PMS7003;67783;51.656;16.106;2023-09-08T19:55:45;26;23;17
77538;PMS7003;67783;51.656;16.106;2023-09-08T19:58:47;24;21;16
77538;PMS7003;67783;51.656;16.106;2023-09-08T20:01:51;21;20;16
77538;PMS7003;67783;51.656;16.106;2023-09-08T20:04:59;29;23;15